createdAt,value
2023-05-14T00:00:52.598Z,93.44
2023-05-14T00:01:55.601Z,93.32
2023-05-14T00:02:58.895Z,92.49
2023-05-14T00:04:03.146Z,92.88
2023-05-14T00:05:06.647Z,92.06
2023-05-14T00:06:10.974Z,92.50
2023-05-14T00:07:13.825Z,93.01
2023-05-14T00:08:16.762Z,93.12
2023-05-14T00:09:20.004Z,93.71
2023-05-14T00:10:23.085Z,93.26
2023-05-14T00:11:26.294Z,92.59
2023-05-14T00:12:30.301Z,92.51
2023-05-14T00:13:33.187Z,92.80
2023-05-14T00:14:36.147Z,91.98
2023-05-14T00:15:39.095Z,91.97
2023-05-14T00:16:41.933Z,91.90
2023-05-14T00:17:45.005Z,92.40
2023-05-14T00:18:48.053Z,93.29
2023-05-14T00:19:51.465Z,93.37
2023-05-14T00:20:55.187Z,92.74
2023-05-14T00:21:58.082Z,92.99
2023-05-14T00:23:01.342Z,92.90
2023-05-14T00:24:04.567Z,92.69
2023-05-14T00:25:08.692Z,93.32
2023-05-14T00:26:11.511Z,92.59
2023-05-14T00:27:15.025Z,92.29
2023-05-14T00:28:18.024Z,92.24
2023-05-14T00:29:21.013Z,93.27
2023-05-14T00:30:24.015Z,93.49
2023-05-14T00:31:27.052Z,93.91
2023-05-14T00:32:30.041Z,92.56
2023-05-14T00:33:32.999Z,92.88
2023-05-14T00:34:36.448Z,92.70
2023-05-14T00:35:39.595Z,93.04
2023-05-14T00:36:42.436Z,93.03
2023-05-14T00:37:45.241Z,92.23
2023-05-14T00:38:48.090Z,92.23
2023-05-14T00:39:51.037Z,92.44
2023-05-14T00:40:54.198Z,92.95
2023-05-14T00:41:57.006Z,92.85
2023-05-14T00:42:59.861Z,92.98
2023-05-14T00:44:03.046Z,92.33
2023-05-14T00:45:07.059Z,92.09
2023-05-14T00:46:10.443Z,92.87
2023-05-14T00:47:13.664Z,92.44
2023-05-14T00:48:16.559Z,93.38
2023-05-14T00:49:19.583Z,93.62
2023-05-14T00:50:23.034Z,94.65
2023-05-14T00:51:26.257Z,94.50
2023-05-14T00:52:29.328Z,94.99
2023-05-14T00:53:32.301Z,95.09
2023-05-14T00:54:36.683Z,94.79
2023-05-14T00:55:42.193Z,95.51
2023-05-14T00:56:46.464Z,95.39
2023-05-14T00:57:51.227Z,95.10
2023-05-14T00:58:54.151Z,95.24
2023-05-14T00:59:57.322Z,95.78
2023-05-14T01:01:00.521Z,95.91
2023-05-14T01:02:03.484Z,95.16
2023-05-14T01:03:07.992Z,94.27
2023-05-14T01:04:12.126Z,94.81
2023-05-14T01:05:15.149Z,95.33
2023-05-14T01:06:30.166Z,95.96
2023-05-14T01:08:02.154Z,95.72
2023-05-14T01:09:46.262Z,96.28
2023-05-14T01:10:58.073Z,96.68
2023-05-14T01:12:03.811Z,96.58
2023-05-14T01:13:21.253Z,96.61
2023-05-14T01:14:45.714Z,96.82
2023-05-14T01:15:49.947Z,96.60
2023-05-14T01:16:58.382Z,95.91
2023-05-14T01:18:09.870Z,96.28
2023-05-14T01:19:27.910Z,96.34
2023-05-14T01:20:30.892Z,97.30
2023-05-14T01:21:38.455Z,97.08
2023-05-14T01:22:41.440Z,96.65
2023-05-14T01:23:44.309Z,96.43
2023-05-14T01:24:47.477Z,96.50
2023-05-14T01:25:50.765Z,96.15
2023-05-14T01:27:00.531Z,95.79
2023-05-14T01:28:18.291Z,95.91
2023-05-14T01:29:23.444Z,95.99
2023-05-14T01:30:51.302Z,96.23
2023-05-14T01:31:57.878Z,96.42
2023-05-14T01:33:06.545Z,96.10
2023-05-14T01:34:12.062Z,96.10
2023-05-14T01:35:16.003Z,96.57
2023-05-14T01:36:19.324Z,96.93
2023-05-14T01:37:22.859Z,97.43
2023-05-14T01:38:27.938Z,97.30
2023-05-14T01:39:32.950Z,97.12
2023-05-14T01:40:37.401Z,97.05
2023-05-14T01:41:40.630Z,96.60
2023-05-14T01:42:44.906Z,96.18
2023-05-14T01:43:48.246Z,96.68
2023-05-14T01:44:51.241Z,97.20
2023-05-14T01:45:55.829Z,95.91
2023-05-14T01:46:58.795Z,95.59
2023-05-14T01:48:01.806Z,96.28
2023-05-14T01:49:04.779Z,96.85
2023-05-14T01:50:07.844Z,96.49
2023-05-14T01:51:10.875Z,96.47
2023-05-14T01:52:13.778Z,96.86
2023-05-14T01:53:16.759Z,97.45
2023-05-14T01:54:19.631Z,96.40
2023-05-14T01:55:24.922Z,96.47
2023-05-14T01:56:27.870Z,96.82
2023-05-14T01:57:30.920Z,96.86
2023-05-14T01:58:33.815Z,97.34
2023-05-14T01:59:36.756Z,97.07
2023-05-14T02:00:39.731Z,97.52
2023-05-14T02:01:42.649Z,97.32
2023-05-14T02:02:46.026Z,97.19
2023-05-14T02:03:49.113Z,97.21
2023-05-14T02:04:52.744Z,97.01
2023-05-14T02:05:56.200Z,96.71
2023-05-14T02:06:59.108Z,97.16
2023-05-14T02:08:01.994Z,96.77
2023-05-14T02:09:05.513Z,97.10
2023-05-14T02:10:09.008Z,96.95
2023-05-14T02:11:11.866Z,96.70
2023-05-14T02:12:14.801Z,96.89
2023-05-14T02:13:17.713Z,95.93
2023-05-14T02:14:20.985Z,96.22
2023-05-14T02:15:23.895Z,96.84
2023-05-14T02:16:26.866Z,96.46
2023-05-14T02:17:30.025Z,96.52
2023-05-14T02:18:33.036Z,96.98
2023-05-14T02:19:35.882Z,96.04
2023-05-14T02:20:38.765Z,97.18
2023-05-14T02:21:41.755Z,97.10
2023-05-14T02:22:46.573Z,95.89
2023-05-14T02:23:50.434Z,96.39
2023-05-14T02:24:53.271Z,96.28
2023-05-14T02:25:56.187Z,96.63
2023-05-14T02:27:01.500Z,96.72
2023-05-14T02:28:04.512Z,97.12
2023-05-14T02:29:07.364Z,97.14
2023-05-14T02:30:11.200Z,96.74
2023-05-14T02:31:14.819Z,96.84
2023-05-14T02:32:18.002Z,97.22
2023-05-14T02:33:21.011Z,96.07
2023-05-14T02:34:24.181Z,95.82
2023-05-14T02:35:27.238Z,95.33
2023-05-14T02:36:30.039Z,94.92
2023-05-14T02:37:33.048Z,95.38
2023-05-14T02:38:35.931Z,94.99
2023-05-14T02:39:38.844Z,95.12
2023-05-14T02:40:41.639Z,95.08
2023-05-14T02:41:44.638Z,95.25
2023-05-14T02:42:47.602Z,95.59
2023-05-14T02:43:50.597Z,95.53
2023-05-14T02:44:53.467Z,95.64
2023-05-14T02:45:56.465Z,95.54
2023-05-14T02:46:59.610Z,96.00
2023-05-14T02:48:02.772Z,95.66
2023-05-14T02:49:05.838Z,96.04
2023-05-14T02:50:09.196Z,96.50
2023-05-14T02:51:12.523Z,96.34
2023-05-14T02:52:15.785Z,95.74
2023-05-14T02:53:19.004Z,95.98
2023-05-14T02:54:22.061Z,95.95
2023-05-14T02:55:26.722Z,95.93
2023-05-14T02:56:29.552Z,95.80
2023-05-14T02:57:32.513Z,96.00
2023-05-14T02:58:35.598Z,95.74
2023-05-14T02:59:38.602Z,96.03
2023-05-14T03:00:42.347Z,95.88
2023-05-14T03:01:45.798Z,96.17
2023-05-14T03:02:49.251Z,95.53
2023-05-14T03:03:52.786Z,96.04
2023-05-14T03:04:55.758Z,95.71
2023-05-14T03:05:58.531Z,95.40
2023-05-14T03:07:01.412Z,95.33
2023-05-14T03:08:04.295Z,95.63
2023-05-14T03:09:07.782Z,96.07
2023-05-14T03:10:11.067Z,95.77
2023-05-14T03:11:14.239Z,96.49
2023-05-14T03:12:17.080Z,96.22
2023-05-14T03:13:21.024Z,95.72
2023-05-14T03:14:23.832Z,95.58
2023-05-14T03:15:26.909Z,95.52
2023-05-14T03:16:29.781Z,95.02
2023-05-14T03:17:32.969Z,94.88
2023-05-14T03:18:36.888Z,95.56
2023-05-14T03:19:39.757Z,95.09
2023-05-14T03:20:42.763Z,95.01
2023-05-14T03:21:45.939Z,95.01
2023-05-14T03:22:48.937Z,95.37
2023-05-14T03:23:53.172Z,96.01
2023-05-14T03:24:56.097Z,96.32
2023-05-14T03:25:59.079Z,95.57
2023-05-14T03:27:01.907Z,95.93
2023-05-14T03:28:05.018Z,96.42
2023-05-14T03:29:07.927Z,96.25
2023-05-14T03:30:12.059Z,95.90
2023-05-14T03:31:15.078Z,95.65
2023-05-14T03:32:18.991Z,95.38
2023-05-14T03:33:22.950Z,95.50
2023-05-14T03:34:25.949Z,95.84
2023-05-14T03:35:28.817Z,95.11
2023-05-14T03:36:32.224Z,95.05
2023-05-14T03:37:35.032Z,94.31
2023-05-14T03:38:37.856Z,94.78
2023-05-14T03:39:40.752Z,94.88
2023-05-14T03:40:45.294Z,95.25
2023-05-14T03:41:48.506Z,95.46
2023-05-14T03:42:51.273Z,95.79
2023-05-14T03:43:54.265Z,95.90
2023-05-14T03:44:57.104Z,95.87
2023-05-14T03:46:00.283Z,95.10
2023-05-14T03:47:03.464Z,95.13
2023-05-14T03:48:06.779Z,94.63
2023-05-14T03:49:09.792Z,94.52
2023-05-14T03:50:12.766Z,94.56
2023-05-14T03:51:15.939Z,94.76
2023-05-14T03:52:18.860Z,94.99
2023-05-14T03:53:21.816Z,95.16
2023-05-14T03:54:24.575Z,94.63
2023-05-14T03:55:27.600Z,94.02
2023-05-14T03:56:30.563Z,93.91
2023-05-14T03:57:33.432Z,93.72
2023-05-14T03:58:36.268Z,93.33
2023-05-14T03:59:39.145Z,93.36
2023-05-14T04:00:42.929Z,94.01
2023-05-14T04:01:45.778Z,94.97
2023-05-14T04:02:48.646Z,95.40
2023-05-14T04:03:52.032Z,95.14
2023-05-14T04:04:55.023Z,94.61
2023-05-14T04:05:58.030Z,94.08
2023-05-14T04:07:00.862Z,94.75
2023-05-14T04:08:03.783Z,94.07
2023-05-14T04:09:06.833Z,93.99
2023-05-14T04:10:09.991Z,93.60
2023-05-14T04:11:12.846Z,93.64
2023-05-14T04:12:15.773Z,94.16
2023-05-14T04:13:18.715Z,94.40
2023-05-14T04:14:21.683Z,94.66
2023-05-14T04:15:24.784Z,94.15
2023-05-14T04:16:27.805Z,93.94
2023-05-14T04:17:30.843Z,93.76
2023-05-14T04:18:35.666Z,93.22
2023-05-14T04:19:39.493Z,92.45
2023-05-14T04:20:42.410Z,92.83
2023-05-14T04:21:45.593Z,92.64
2023-05-14T04:22:48.371Z,93.28
2023-05-14T04:23:51.890Z,93.97
2023-05-14T04:24:54.656Z,93.46
2023-05-14T04:25:58.083Z,93.72
2023-05-14T04:27:00.983Z,93.00
2023-05-14T04:28:03.983Z,93.55
2023-05-14T04:29:06.891Z,93.19
2023-05-14T04:30:10.398Z,92.44
2023-05-14T04:31:13.451Z,92.44
2023-05-14T04:32:16.543Z,92.36
2023-05-14T04:33:19.424Z,92.77
2023-05-14T04:34:22.221Z,92.25
2023-05-14T04:35:25.518Z,92.06
2023-05-14T04:36:28.712Z,92.36
2023-05-14T04:37:32.097Z,91.74
2023-05-14T04:38:35.015Z,92.57
2023-05-14T04:39:38.563Z,93.29
2023-05-14T04:40:44.542Z,94.07
2023-05-14T04:41:47.367Z,92.85
2023-05-14T04:42:50.438Z,92.26
2023-05-14T04:43:56.902Z,92.70
2023-05-14T04:44:59.635Z,92.29
2023-05-14T04:46:02.633Z,93.62
2023-05-14T04:47:07.313Z,93.12
2023-05-14T04:48:10.262Z,92.74
2023-05-14T04:49:13.590Z,92.30
2023-05-14T04:50:16.737Z,92.32
2023-05-14T04:51:19.632Z,93.37
2023-05-14T04:52:22.461Z,93.42
2023-05-14T04:53:25.375Z,93.19
2023-05-14T04:54:28.294Z,93.20
2023-05-14T04:55:31.352Z,92.80
2023-05-14T04:56:34.142Z,93.24
2023-05-14T04:57:37.041Z,92.45
2023-05-14T04:58:39.973Z,93.01
2023-05-14T04:59:43.059Z,93.21
2023-05-14T05:00:46.129Z,92.53
2023-05-14T05:01:49.131Z,92.21
2023-05-14T05:02:52.077Z,93.13
2023-05-14T05:03:55.647Z,92.94
2023-05-14T05:04:58.508Z,92.92
2023-05-14T05:06:01.670Z,92.03
2023-05-14T05:07:05.978Z,91.78
2023-05-14T05:08:08.934Z,92.27
2023-05-14T05:09:11.882Z,92.86
2023-05-14T05:10:15.023Z,93.07
2023-05-14T05:11:18.252Z,92.06
2023-05-14T05:12:21.759Z,92.39
2023-05-14T05:13:24.961Z,92.87
2023-05-14T05:14:27.898Z,92.41
2023-05-14T05:15:30.760Z,92.86
2023-05-14T05:16:33.730Z,93.61
2023-05-14T05:17:37.318Z,92.23
2023-05-14T05:18:40.471Z,93.11
2023-05-14T05:19:44.564Z,94.18
2023-05-14T05:20:48.033Z,94.24
2023-05-14T05:21:51.514Z,94.90
2023-05-14T05:22:54.545Z,95.35
2023-05-14T05:23:57.456Z,95.25
2023-05-14T05:25:00.366Z,95.37
2023-05-14T05:26:03.308Z,94.60
2023-05-14T05:27:06.390Z,95.07
2023-05-14T05:28:09.468Z,94.05
2023-05-14T05:29:12.340Z,94.13
2023-05-14T05:30:15.233Z,94.42
2023-05-14T05:31:19.787Z,94.35
2023-05-14T05:32:23.503Z,94.60
2023-05-14T05:33:26.755Z,95.08
2023-05-14T05:34:30.014Z,95.31
2023-05-14T05:35:32.795Z,94.59
2023-05-14T05:36:36.173Z,95.18
2023-05-14T05:37:39.012Z,94.94
2023-05-14T05:38:41.918Z,95.13
2023-05-14T05:39:44.745Z,94.20
2023-05-14T05:40:48.280Z,93.09
2023-05-14T05:41:51.146Z,93.53
2023-05-14T05:42:54.096Z,93.18
2023-05-14T05:43:57.184Z,93.51
2023-05-14T05:45:00.062Z,92.46
2023-05-14T05:46:03.083Z,93.85
2023-05-14T05:47:06.342Z,94.74
2023-05-14T05:48:09.230Z,93.59
2023-05-14T05:49:12.045Z,94.27
2023-05-14T05:50:15.297Z,93.80
2023-05-14T05:51:18.106Z,93.67
2023-05-14T05:52:21.109Z,94.38
2023-05-14T05:53:23.937Z,93.94
2023-05-14T05:54:27.402Z,93.95
2023-05-14T05:55:30.742Z,93.79
2023-05-14T05:56:33.810Z,94.82
2023-05-14T05:57:36.748Z,94.66
2023-05-14T05:58:39.746Z,94.37
2023-05-14T05:59:42.726Z,93.80
2023-05-14T06:00:47.267Z,92.58
2023-05-14T06:01:50.181Z,93.97
2023-05-14T06:02:53.228Z,94.20
2023-05-14T06:03:57.180Z,93.43
2023-05-14T06:05:00.029Z,93.51
2023-05-14T06:06:03.158Z,93.84
2023-05-14T06:07:05.973Z,94.53
2023-05-14T06:08:08.962Z,94.89
2023-05-14T06:09:11.849Z,94.59
2023-05-14T06:10:14.714Z,94.83
2023-05-14T06:11:17.640Z,95.21
2023-05-14T06:12:21.001Z,94.12
2023-05-14T06:13:23.857Z,94.26
2023-05-14T06:14:26.722Z,93.80
2023-05-14T06:15:29.628Z,93.54
2023-05-14T06:16:32.658Z,93.99
2023-05-14T06:17:35.744Z,94.13
2023-05-14T06:18:38.603Z,93.75
2023-05-14T06:19:41.610Z,93.84
2023-05-14T06:20:45.252Z,94.99
2023-05-14T06:21:48.182Z,96.78
2023-05-14T06:22:50.987Z,96.98
2023-05-14T06:23:53.827Z,97.44
2023-05-14T06:24:56.702Z,97.77
2023-05-14T06:25:59.631Z,96.65
2023-05-14T06:27:02.603Z,96.71
2023-05-14T06:28:05.575Z,97.13
2023-05-14T06:29:08.508Z,96.77
2023-05-14T06:30:12.335Z,97.64
2023-05-14T06:31:15.589Z,95.55
2023-05-14T06:32:18.643Z,96.17
2023-05-14T06:33:29.853Z,96.39
2023-05-14T06:34:32.982Z,96.97
2023-05-14T06:35:37.299Z,96.99
2023-05-14T06:36:40.484Z,96.76
2023-05-14T06:37:43.321Z,96.96
2023-05-14T06:38:46.104Z,98.16
2023-05-14T06:39:50.890Z,98.03
2023-05-14T06:40:53.862Z,98.06
2023-05-14T06:41:56.805Z,98.49
2023-05-14T06:42:59.766Z,98.22
2023-05-14T06:44:02.721Z,98.52
2023-05-14T06:45:06.773Z,97.04
2023-05-14T06:46:09.657Z,98.34
2023-05-14T06:47:12.539Z,98.37
2023-05-14T06:48:15.776Z,97.42
2023-05-14T06:49:18.734Z,96.87
2023-05-14T06:50:21.966Z,97.62
2023-05-14T06:51:25.036Z,98.21
2023-05-14T06:52:28.173Z,96.54
2023-05-14T06:53:31.519Z,96.25
2023-05-14T06:54:34.462Z,96.35
2023-05-14T06:55:37.434Z,97.84
2023-05-14T06:56:40.313Z,98.98
2023-05-14T06:57:43.234Z,99.11
2023-05-14T06:58:45.970Z,97.70
2023-05-14T06:59:48.947Z,97.21
2023-05-14T07:00:51.779Z,96.75
2023-05-14T07:01:54.777Z,96.98
2023-05-14T07:02:57.725Z,98.23
2023-05-14T07:04:00.672Z,97.22
2023-05-14T07:05:03.893Z,97.69
2023-05-14T07:06:07.331Z,98.16
2023-05-14T07:07:13.862Z,96.70
2023-05-14T07:08:16.704Z,95.72
2023-05-14T07:09:20.026Z,95.70
2023-05-14T07:10:23.155Z,96.74
2023-05-14T07:11:26.348Z,96.21
2023-05-14T07:12:29.181Z,95.99
2023-05-14T07:13:32.088Z,96.57
2023-05-14T07:14:34.925Z,96.60
2023-05-14T07:15:37.886Z,96.43
2023-05-14T07:16:41.950Z,98.39
2023-05-14T07:17:45.551Z,98.19
2023-05-14T07:18:48.528Z,97.18
2023-05-14T07:19:51.616Z,97.81
2023-05-14T07:20:54.538Z,95.73
2023-05-14T07:21:58.282Z,97.04
2023-05-14T07:23:01.128Z,97.35
2023-05-14T07:24:04.237Z,97.23
2023-05-14T07:25:08.018Z,97.12
2023-05-14T07:26:10.997Z,96.22
2023-05-14T07:27:13.900Z,95.84
2023-05-14T07:28:16.761Z,96.11
2023-05-14T07:29:19.641Z,97.48
2023-05-14T07:30:22.888Z,96.24
2023-05-14T07:31:26.039Z,95.04
2023-05-14T07:32:29.189Z,94.24
2023-05-14T07:33:32.335Z,94.81
2023-05-14T07:34:35.142Z,94.58
2023-05-14T07:35:38.039Z,95.04
2023-05-14T07:36:41.434Z,95.06
2023-05-14T07:37:44.524Z,96.57
2023-05-14T07:38:47.514Z,96.81
2023-05-14T07:39:50.613Z,95.40
2023-05-14T07:40:53.621Z,94.91
2023-05-14T07:41:56.645Z,95.34
2023-05-14T07:42:59.669Z,93.22
2023-05-14T07:44:02.748Z,92.73
2023-05-14T07:45:06.397Z,93.98
2023-05-14T07:46:09.594Z,94.04
2023-05-14T07:47:12.569Z,95.68
2023-05-14T07:48:15.720Z,95.84
2023-05-14T07:49:18.819Z,95.06
2023-05-14T07:50:23.730Z,94.01
2023-05-14T07:51:28.857Z,92.61
2023-05-14T07:52:31.648Z,94.78
2023-05-14T07:53:34.582Z,93.11
2023-05-14T07:54:37.539Z,92.46
2023-05-14T07:55:40.584Z,93.00
2023-05-14T07:56:43.423Z,92.43
2023-05-14T07:57:46.899Z,90.82
2023-05-14T07:58:51.309Z,93.23
2023-05-14T07:59:54.224Z,93.04
2023-05-14T08:00:57.880Z,93.64
2023-05-14T08:02:00.892Z,92.87
2023-05-14T08:03:04.128Z,93.44
2023-05-14T08:04:07.255Z,94.72
2023-05-14T08:05:10.824Z,92.98
2023-05-14T08:06:13.619Z,92.46
2023-05-14T08:07:16.520Z,92.71
2023-05-14T08:08:19.314Z,91.85
2023-05-14T08:09:22.286Z,90.99
2023-05-14T08:10:25.709Z,91.77
2023-05-14T08:11:32.036Z,92.51
2023-05-14T08:12:34.900Z,92.24
2023-05-14T08:13:37.964Z,91.72
2023-05-14T08:14:40.937Z,92.17
2023-05-14T08:15:43.876Z,94.35
2023-05-14T08:16:46.732Z,93.55
2023-05-14T08:17:49.772Z,92.05
2023-05-14T08:18:52.686Z,91.07
2023-05-14T08:19:55.503Z,91.66
2023-05-14T08:20:58.441Z,93.65
2023-05-14T08:22:01.333Z,91.71
2023-05-14T08:23:04.218Z,92.39
2023-05-14T08:24:07.368Z,90.39
2023-05-14T08:25:10.680Z,89.31
2023-05-14T08:26:13.634Z,90.30
2023-05-14T08:27:16.900Z,90.67
2023-05-14T08:28:19.744Z,90.70
2023-05-14T08:29:22.580Z,93.05
2023-05-14T08:30:26.099Z,93.83
2023-05-14T08:31:29.390Z,93.85
2023-05-14T08:32:32.388Z,91.40
2023-05-14T08:33:35.343Z,92.53
2023-05-14T08:34:38.247Z,93.42
2023-05-14T08:35:41.238Z,95.05
2023-05-14T08:36:44.115Z,93.49
2023-05-14T08:37:46.873Z,94.58
2023-05-14T08:38:50.682Z,93.66
2023-05-14T08:39:53.461Z,94.91
2023-05-14T08:41:00.942Z,94.83
2023-05-14T08:42:06.861Z,95.95
2023-05-14T08:43:12.392Z,95.35
2023-05-14T08:44:51.830Z,96.31
2023-05-14T08:45:58.720Z,94.14
2023-05-14T08:47:02.316Z,93.69
2023-05-14T08:48:10.073Z,93.78
2023-05-14T08:49:22.790Z,92.21
2023-05-14T08:50:26.011Z,92.54
2023-05-14T08:51:29.160Z,94.97
2023-05-14T08:52:32.771Z,96.00
2023-05-14T08:53:36.252Z,95.74
2023-05-14T08:54:40.718Z,94.16
2023-05-14T08:55:45.608Z,95.44
2023-05-14T08:56:49.946Z,94.39
2023-05-14T08:57:54.958Z,96.10
2023-05-14T08:58:57.825Z,96.18
2023-05-14T09:00:01.691Z,94.28
2023-05-14T09:01:04.790Z,94.72
2023-05-14T09:02:10.440Z,94.96
2023-05-14T09:03:15.111Z,94.27
2023-05-14T09:04:22.317Z,94.47
2023-05-14T09:05:25.811Z,93.75
2023-05-14T09:06:29.306Z,95.12
2023-05-14T09:07:32.366Z,96.28
2023-05-14T09:08:36.784Z,95.65
2023-05-14T09:09:40.662Z,95.29
2023-05-14T09:10:43.598Z,95.52
2023-05-14T09:11:47.321Z,94.95
2023-05-14T09:12:50.187Z,95.79
2023-05-14T09:13:53.011Z,96.61
2023-05-14T09:14:55.897Z,95.81
2023-05-14T09:15:59.381Z,94.31
2023-05-14T09:17:02.844Z,95.22
2023-05-14T09:18:06.525Z,94.02
2023-05-14T09:19:09.629Z,94.03
2023-05-14T09:20:13.445Z,94.86
2023-05-14T09:21:16.565Z,96.52
2023-05-14T09:22:20.738Z,96.01
2023-05-14T09:23:26.752Z,94.55
2023-05-14T09:24:29.881Z,94.11
2023-05-14T09:25:32.936Z,95.51
2023-05-14T09:26:36.130Z,94.70
2023-05-14T09:27:39.287Z,97.07
2023-05-14T09:28:42.336Z,97.75
2023-05-14T09:29:45.222Z,96.60
2023-05-14T09:30:52.368Z,96.71
2023-05-14T09:31:56.683Z,95.48
2023-05-14T09:32:59.887Z,96.69
2023-05-14T09:34:02.803Z,96.17
2023-05-14T09:35:12.775Z,95.98
2023-05-14T09:36:17.140Z,96.34
2023-05-14T09:37:19.964Z,97.87
2023-05-14T09:38:28.559Z,96.04
2023-05-14T09:39:32.940Z,95.83
2023-05-14T09:40:36.406Z,97.63
2023-05-14T09:41:39.626Z,97.23
2023-05-14T09:42:42.756Z,96.36
2023-05-14T09:43:45.692Z,96.82
2023-05-14T09:44:48.524Z,96.74
2023-05-14T09:45:51.520Z,97.00
2023-05-14T09:46:54.674Z,98.23
2023-05-14T09:48:01.437Z,97.51
2023-05-14T09:49:04.746Z,99.32
2023-05-14T09:50:08.446Z,98.99
2023-05-14T09:51:11.831Z,97.54
2023-05-14T09:52:14.803Z,95.53
2023-05-14T09:53:18.044Z,96.07
2023-05-14T09:54:21.053Z,96.21
2023-05-14T09:55:24.055Z,97.02
2023-05-14T09:56:26.978Z,97.62
2023-05-14T09:57:29.973Z,97.45
2023-05-14T09:58:33.009Z,98.45
2023-05-14T09:59:35.886Z,97.55
2023-05-14T10:00:39.258Z,97.74
2023-05-14T10:01:44.622Z,96.96
2023-05-14T10:02:49.041Z,97.07
2023-05-14T10:03:53.656Z,96.58
2023-05-14T10:05:01.097Z,96.70
2023-05-14T10:06:07.150Z,96.73
2023-05-14T10:07:10.430Z,96.94
2023-05-14T10:08:20.203Z,98.39
2023-05-14T10:09:26.519Z,98.37
2023-05-14T10:10:30.628Z,97.57
2023-05-14T10:11:37.582Z,96.98
2023-05-14T10:12:41.144Z,97.07
2023-05-14T10:14:04.855Z,98.98
2023-05-14T10:15:24.449Z,99.13
2023-05-14T10:16:35.490Z,98.25
2023-05-14T10:17:41.348Z,98.78
2023-05-14T10:18:48.812Z,100.00
2023-05-14T10:19:54.867Z,100.00
2023-05-14T10:21:05.127Z,100.00
2023-05-14T10:22:11.882Z,98.78
2023-05-14T10:23:15.257Z,98.33
2023-05-14T10:24:19.469Z,98.15
2023-05-14T10:25:23.222Z,98.43
2023-05-14T10:26:26.443Z,97.26
2023-05-14T10:27:30.021Z,98.42
2023-05-14T10:28:33.517Z,96.17
2023-05-14T10:29:38.245Z,97.45
2023-05-14T10:30:47.299Z,98.09
2023-05-14T10:31:55.621Z,95.55
2023-05-14T10:33:09.676Z,95.39
2023-05-14T10:34:38.893Z,98.02
2023-05-14T10:35:53.130Z,96.71
2023-05-14T10:37:00.284Z,98.29
2023-05-14T10:38:08.887Z,96.47
2023-05-14T10:39:11.852Z,98.13
2023-05-14T10:40:14.928Z,97.65
2023-05-14T10:41:21.872Z,96.56
2023-05-14T10:42:43.749Z,96.70
2023-05-14T10:43:47.181Z,96.12
2023-05-14T10:45:02.743Z,98.48
2023-05-14T10:46:06.834Z,98.56
2023-05-14T10:47:09.906Z,98.32
2023-05-14T10:48:12.877Z,97.86
2023-05-14T10:49:28.906Z,97.07
2023-05-14T10:50:39.271Z,96.62
2023-05-14T10:51:42.375Z,98.51
2023-05-14T10:52:46.223Z,99.03
2023-05-14T10:53:49.506Z,98.10
2023-05-14T10:54:55.395Z,97.21
2023-05-14T10:55:58.187Z,98.09
2023-05-14T10:57:01.337Z,97.35
2023-05-14T10:58:05.052Z,97.70
2023-05-14T10:59:08.253Z,100.00
2023-05-14T11:00:11.801Z,100.00
2023-05-14T11:01:14.972Z,100.00
2023-05-14T11:02:55.713Z,100.00
2023-05-14T11:03:58.857Z,98.67
2023-05-14T11:05:04.483Z,99.73
2023-05-14T11:06:07.920Z,99.12
2023-05-14T11:07:10.940Z,99.69
2023-05-14T11:08:14.534Z,100.00
2023-05-14T11:09:18.119Z,100.00
2023-05-14T11:10:26.275Z,100.00
2023-05-14T11:11:29.777Z,99.82
2023-05-14T11:12:34.169Z,100.00
2023-05-14T11:13:37.106Z,100.00
2023-05-14T11:14:40.251Z,100.00
2023-05-14T11:15:49.873Z,98.97
2023-05-14T11:16:52.892Z,98.89
2023-05-14T11:17:56.042Z,100.00
2023-05-14T11:19:06.321Z,99.95
2023-05-14T11:20:10.830Z,100.00
2023-05-14T11:21:14.071Z,100.00
2023-05-14T11:22:16.887Z,99.50
2023-05-14T11:23:25.550Z,98.89
2023-05-14T11:24:28.373Z,99.69
2023-05-14T11:25:31.484Z,99.55
2023-05-14T11:26:34.540Z,100.00
2023-05-14T11:27:39.122Z,99.84
2023-05-14T11:28:42.065Z,100.00
2023-05-14T11:29:49.291Z,100.00
2023-05-14T11:30:53.483Z,100.00
2023-05-14T11:31:56.659Z,100.00
2023-05-14T11:33:01.881Z,100.00
2023-05-14T11:34:08.109Z,100.00
2023-05-14T11:35:10.941Z,100.00
2023-05-14T11:36:14.208Z,100.00
2023-05-14T11:37:17.516Z,100.00
2023-05-14T11:38:21.536Z,100.00
2023-05-14T11:39:24.302Z,100.00
2023-05-14T11:40:27.405Z,100.00
2023-05-14T11:41:31.596Z,100.00
2023-05-14T11:42:34.566Z,100.00
2023-05-14T11:43:37.644Z,100.00
2023-05-14T11:44:46.873Z,100.00
2023-05-14T11:45:56.692Z,100.00
2023-05-14T11:46:59.839Z,100.00
2023-05-14T11:48:02.854Z,100.00
2023-05-14T11:49:06.967Z,100.00
2023-05-14T11:50:10.221Z,100.00
2023-05-14T11:51:13.159Z,100.00
2023-05-14T11:52:19.696Z,100.00
2023-05-14T11:53:27.623Z,100.00
2023-05-14T11:54:31.494Z,100.00
2023-05-14T11:55:36.570Z,100.00
2023-05-14T11:56:39.473Z,100.00
2023-05-14T11:57:42.849Z,100.00
2023-05-14T11:58:49.579Z,100.00
2023-05-14T11:59:59.211Z,100.00
2023-05-14T12:01:02.385Z,100.00
2023-05-14T12:02:06.392Z,100.00
2023-05-14T12:03:10.496Z,100.00
2023-05-14T12:04:19.179Z,100.00
2023-05-14T12:05:22.218Z,100.00
2023-05-14T12:06:32.431Z,100.00
2023-05-14T12:07:35.279Z,100.00
2023-05-14T12:08:38.110Z,100.00
2023-05-14T12:09:49.854Z,100.00
2023-05-14T12:10:58.499Z,100.00
2023-05-14T12:12:09.156Z,100.00
2023-05-14T12:13:16.017Z,100.00
2023-05-14T12:14:23.677Z,100.00
2023-05-14T12:15:27.043Z,100.00
2023-05-14T12:16:33.938Z,100.00
2023-05-14T12:17:38.380Z,100.00
2023-05-14T12:18:41.450Z,100.00
2023-05-14T12:19:45.876Z,100.00
2023-05-14T12:20:49.429Z,100.00
2023-05-14T12:21:52.293Z,100.00
2023-05-14T12:22:55.162Z,100.00
2023-05-14T12:24:01.660Z,100.00
2023-05-14T12:25:04.795Z,100.00
2023-05-14T12:26:09.633Z,100.00
2023-05-14T12:27:12.535Z,100.00
2023-05-14T12:28:16.538Z,100.00
2023-05-14T12:29:22.027Z,100.00
2023-05-14T12:30:25.139Z,100.00
2023-05-14T12:31:32.132Z,100.00
2023-05-14T12:32:36.213Z,100.00
2023-05-14T12:33:39.187Z,100.00
2023-05-14T12:34:41.960Z,100.00
2023-05-14T12:35:44.763Z,100.00
2023-05-14T12:36:47.612Z,100.00
2023-05-14T12:37:50.524Z,100.00
2023-05-14T12:39:01.765Z,100.00
2023-05-14T12:40:09.776Z,100.00
2023-05-14T12:41:12.610Z,100.00
2023-05-14T12:42:16.732Z,100.00
2023-05-14T12:43:20.214Z,100.00
2023-05-14T12:44:23.086Z,100.00
2023-05-14T12:45:26.341Z,100.00
2023-05-14T12:46:29.373Z,100.00
2023-05-14T12:47:32.648Z,100.00
2023-05-14T12:48:35.402Z,100.00
2023-05-14T12:49:38.302Z,100.00
2023-05-14T12:50:41.151Z,100.00
2023-05-14T12:51:44.359Z,100.00
2023-05-14T12:52:47.076Z,100.00
2023-05-14T12:53:51.932Z,100.00
2023-05-14T12:54:54.864Z,100.00
2023-05-14T12:55:57.772Z,100.00
2023-05-14T12:57:00.736Z,100.00
2023-05-14T12:58:03.806Z,100.00
2023-05-14T12:59:06.589Z,100.00
2023-05-14T13:00:21.163Z,100.00
2023-05-14T13:01:24.615Z,100.00
2023-05-14T13:02:27.645Z,100.00
2023-05-14T13:03:30.814Z,100.00
2023-05-14T13:04:34.152Z,100.00
2023-05-14T13:05:37.639Z,100.00
2023-05-14T13:06:40.748Z,100.00
2023-05-14T13:07:43.594Z,100.00
2023-05-14T13:08:46.621Z,100.00
2023-05-14T13:09:49.325Z,100.00
2023-05-14T13:10:56.098Z,100.00
2023-05-14T13:11:59.133Z,100.00
2023-05-14T13:13:04.922Z,100.00
2023-05-14T13:14:07.683Z,100.00
2023-05-14T13:15:11.043Z,100.00
2023-05-14T13:16:17.045Z,100.00
2023-05-14T13:17:20.124Z,100.00
2023-05-14T13:18:23.009Z,100.00
2023-05-14T13:19:25.757Z,100.00
2023-05-14T13:20:29.790Z,100.00
2023-05-14T13:21:32.656Z,100.00
2023-05-14T13:22:35.593Z,100.00
2023-05-14T13:23:39.048Z,100.00
2023-05-14T13:24:41.918Z,100.00
2023-05-14T13:25:44.719Z,100.00
2023-05-14T13:26:47.562Z,100.00
2023-05-14T13:27:53.170Z,100.00
2023-05-14T13:28:56.527Z,100.00
2023-05-14T13:29:59.557Z,100.00
2023-05-14T13:31:12.898Z,100.00
2023-05-14T13:32:15.708Z,100.00
2023-05-14T13:33:18.494Z,100.00
2023-05-14T13:34:21.642Z,100.00
2023-05-14T13:35:24.670Z,100.00
2023-05-14T13:36:28.114Z,100.00
2023-05-14T13:37:30.958Z,100.00
2023-05-14T13:38:34.386Z,100.00
2023-05-14T13:39:37.102Z,100.00
2023-05-14T13:40:39.772Z,100.00
2023-05-14T13:41:42.654Z,100.00
2023-05-14T13:42:45.524Z,100.00